UB3APB-WY>APRS,TCPIP*,qAC,T2MOSCOW:!4435.05N/04007.56E_000/000t083h39 Temp 26.5/28.6/29.3/26.9C Hum 39.0% (2026-09-05 14:30:17)
UB3APB-WY>APRS,TCPIP*,qAC,T2MOSCOW:!4435.05N/04007.56E_000/000t083h40 Temp 26.4/28.6/29.1/27.0C Hum 40.0% (2026-09-05 14:35:23)
UB3APB-WY>APRS,TCPIP*,qAC,T2VENYOV:!4435.05N/04007.56E_000/000t083h40 Temp 26.5/28.6/29.1/27.0C Hum 40.0% (2026-09-05 14:40:30)
UB3APB-WY>APRS,TCPIP*,qAC,T2TROITSK:!4435.05N/04007.56E_000/000t083h42 Temp 26.4/28.6/29.1/27.0C Hum 42.0% (2026-09-05 14:45:37)
UB3APB-WY>APRS,TCPIP*,qAC,T2RUSSIA2:!4435.05N/04007.56E_000/000t083h40 Temp 26.5/28.4/28.9/27.0C Hum 40.0% (2026-09-05 14:50:43)
UB3APB-WY>APRS,TCPIP*,qAC,T2VENYOV:!4435.05N/04007.56E_000/000t084h39 Temp 26.5/28.9/29.3/27.2C Hum 39.0% (2026-09-05 14:55:50)
UB3APB-WY>APRS,TCPIP*,qAC,T2VENYOV:!4435.05N/04007.56E_000/000t084h39 Temp 26.4/28.8/29.1/27.2C Hum 39.0% (2026-09-05 15:00:56)
UB3APB-WY>APRS,TCPIP*,qAC,T2VENYOV:!4435.05N/04007.56E_000/000t083h39 Temp 26.5/28.6/29.2/27.3C Hum 39.0% (2026-09-05 15:06:03)
UB3APB-WY>APRS,TCPIP*,qAC,T2MOSCOW:!4435.05N/04007.56E_000/000t084h40 Temp 26.6/29.0/29.3/27.3C Hum 40.0% (2026-09-05 15:11:10)
UB3APB-WY>APRS,TCPIP*,qAC,T2VENYOV:!4435.05N/04007.56E_000/000t083h39 Temp 26.5/28.6/28.8/27.2C Hum 39.0% (2026-09-05 15:16:16)
UB3APB-WY>APRS,TCPIP*,qAC,T2TROITSK:!4435.05N/04007.56E_000/000t084h38 Temp 26.5/28.8/29.2/27.3C Hum 38.0% (2026-09-05 15:21:22)
UB3APB-WY>APRS,TCPIP*,qAC,T2RUSSIA2:!4435.05N/04007.56E_000/000t083h38 Temp 26.5/28.5/29.1/27.3C Hum 38.0% (2026-09-05 15:26:28)
UB3APB-WY>APRS,TCPIP*,qAC,T2RUSSIA2:!4435.05N/04007.56E_000/000t084h39 Temp 26.4/29.0/29.2/27.3C Hum 39.0% (2026-09-05 15:31:35)
UB3APB-WY>APRS,TCPIP*,qAC,T2VENYOV:!4435.05N/04007.56E_000/000t083h38 Temp 26.5/28.6/28.9/27.3C Hum 38.0% (2026-09-05 15:36:42)
UB3APB-WY>APRS,TCPIP*,qAC,T2MOSCOW:!4435.05N/04007.56E_000/000t084h36 Temp 26.5/28.7/28.8/27.3C Hum 36.0% (2026-09-05 15:41:48)
UB3APB-WY>APRS,TCPIP*,qAC,T2RUSSIA2:!4435.05N/04007.56E_000/000t083h37 Temp 26.5/28.6/28.9/27.3C Hum 37.0% (2026-09-05 15:46:55)
UB3APB-WY>APRS,TCPIP*,qAC,T2RUSSIA2:!4435.05N/04007.56E_000/000t083h38 Temp 26.5/28.6/29.0/27.4C Hum 38.0% (2026-09-05 15:52:01)
UB3APB-WY>APRS,TCPIP*,qAC,T2VENYOV:!4435.05N/04007.56E_000/000t083h39 Temp 26.4/28.3/28.6/27.3C Hum 39.0% (2026-09-05 15:57:07)
UB3APB-WY>APRS,TCPIP*,qAC,T2TROITSK:!4435.05N/04007.56E_000/000t082h41 Temp 26.5/28.0/28.4/27.2C Hum 41.0% (2026-09-05 16:02:13)
UB3APB-WY>APRS,TCPIP*,qAC,T2VENYOV:!4435.05N/04007.56E_000/000t083h40 Temp 26.5/28.2/28.6/27.3C Hum 40.0% (2026-09-05 16:07:19)
UB3APB-WY>APRS,TCPIP*,qAC,T2TROITSK:!4435.05N/04007.56E_000/000t083h40 Temp 26.4/28.1/28.6/27.4C Hum 40.0% (2026-09-05 16:12:26)
UB3APB-WY>APRS,TCPIP*,qAC,T2RUSSIA2:!4435.05N/04007.56E_000/000t082h42 Temp 26.4/28.0/28.6/27.5C Hum 42.0% (2026-09-05 16:17:32)
UB3APB-WY>APRS,TCPIP*,qAC,T2MOSCOW:!4435.05N/04007.56E_000/000t083h42 Temp 26.4/28.1/28.5/27.3C Hum 42.0% (2026-09-05 16:22:39)
UB3APB-WY>APRS,TCPIP*,qAC,T2RUSSIA2:!4435.05N/04007.56E_000/000t082h41 Temp 26.4/27.8/28.1/27.3C Hum 41.0% (2026-09-05 16:27:45)
UB3APB-WY>APRS,TCPIP*,qAC,T2ADG:!4435.05N/04007.56E_000/000t082h45 Temp 26.4/27.7/28.3/27.3C Hum 45.0% (2026-09-05 16:32:51)
UB3APB-WY>APRS,TCPIP*,qAC,T2VENYOV:!4435.05N/04007.56E_000/000t083h40 Temp 26.5/28.1/28.6/27.3C Hum 40.0% (2026-09-05 16:37:57)
UB3APB-WY>APRS,TCPIP*,qAC,T2MOSCOW:!4435.05N/04007.56E_000/000t082h39 Temp 26.5/27.8/28.5/27.3C Hum 39.0% (2026-09-05 16:43:04)
UB3APB-WY>APRS,TCPIP*,qAC,T2MOSCOW:!4435.05N/04007.56E_000/000t082h41 Temp 26.6/27.6/28.2/27.3C Hum 41.0% (2026-09-05 16:48:10)
UB3APB-WY>APRS,TCPIP*,qAC,T2RUSSIA2:!4435.05N/04007.56E_000/000t082h44 Temp 26.6/27.5/28.1/27.4C Hum 44.0% (2026-09-05 16:53:15)
UB3APB-WY>APRS,TCPIP*,qAC,T2TROITSK:!4435.05N/04007.56E_000/000t082h40 Temp 26.5/27.5/28.1/27.4C Hum 40.0% (2026-09-05 16:58:22)
UB3APB-WY>APRS,TCPIP*,qAC,T2ADG:!4435.05N/04007.56E_000/000t081h44 Temp 26.5/27.2/27.9/27.4C Hum 44.0% (2026-09-05 17:03:29)
UB3APB-WY>APRS,TCPIP*,qAC,T2RUSSIA2:!4435.05N/04007.56E_000/000t080h46 Temp 26.5/26.9/27.8/27.4C Hum 46.0% (2026-09-05 17:08:34)
UB3APB-WY>APRS,TCPIP*,qAC,T2TROITSK:!4435.05N/04007.56E_000/000t080h47 Temp 26.5/26.7/27.4/27.5C Hum 47.0% (2026-09-05 17:13:41)
UB3APB-WY>APRS,TCPIP*,qAC,T2ADG:!4435.05N/04007.56E_000/000t080h45 Temp 26.4/26.6/27.3/27.5C Hum 45.0% (2026-09-05 17:18:47)
UB3APB-WY>APRS,TCPIP*,qAC,T2VENYOV:!4435.05N/04007.56E_000/000t080h46 Temp 26.4/26.5/27.2/27.5C Hum 46.0% (2026-09-05 17:23:53)
UB3APB-WY>APRS,TCPIP*,qAC,T2MOSCOW:!4435.05N/04007.56E_000/000t079h51 Temp 26.4/26.0/26.7/27.5C Hum 51.0% (2026-09-05 17:28:59)
UB3APB-WY>APRS,TCPIP*,qAC,T2RUSSIA2:!4435.05N/04007.56E_000/000t078h55 Temp 26.4/25.3/25.7/27.5C Hum 55.0% (2026-09-05 17:34:05)
UB3APB-WY>APRS,TCPIP*,qAC,T2VENYOV:!4435.05N/04007.56E_000/000t076h60 Temp 26.3/24.7/25.4/27.5C Hum 60.0% (2026-09-05 17:39:11)
UB3APB-WY>APRS,TCPIP*,qAC,T2MOSCOW:!4435.05N/04007.56E_000/000t076h61 Temp 26.3/24.2/24.7/27.5C Hum 61.0% (2026-09-05 17:44:17)
UB3APB-WY>APRS,TCPIP*,qAC,T2ADG:!4435.05N/04007.56E_000/000t075h64 Temp 26.3/23.7/24.6/27.5C Hum 64.0% (2026-09-05 17:49:24)
UB3APB-WY>APRS,TCPIP*,qAC,T2VENYOV:!4435.05N/04007.56E_000/000t074h65 Temp 26.3/23.3/24.1/27.3C Hum 65.0% (2026-09-05 17:54:30)
UB3APB-WY>APRS,TCPIP*,qAC,T2MOSCOW:!4435.05N/04007.56E_000/000t072h68 Temp 26.3/22.5/23.3/27.2C Hum 68.0% (2026-09-05 17:59:36)
UB3APB-WY>APRS,TCPIP*,qAC,T2TROITSK:!4435.05N/04007.56E_000/000t071h71 Temp 26.3/21.9/22.8/27.1C Hum 71.0% (2026-09-05 18:04:42)
UB3APB-WY>APRS,TCPIP*,qAC,T2VENYOV:!4435.05N/04007.56E_000/000t071h72 Temp 26.3/21.5/22.6/27.0C Hum 72.0% (2026-09-05 18:09:48)
UB3APB-WY>APRS,TCPIP*,qAC,T2MOSCOW:!4435.05N/04007.56E_000/000t070h74 Temp 26.2/21.1/22.5/26.9C Hum 74.0% (2026-09-05 18:14:54)
UB3APB-WY>APRS,TCPIP*,qAC,T2TROITSK:!4435.05N/04007.56E_000/000t069h74 Temp 26.1/20.8/22.1/26.9C Hum 74.0% (2026-09-05 18:20:01)
UB3APB-WY>APRS,TCPIP*,qAC,T2ADG:!4435.05N/04007.56E_000/000t069h76 Temp 26.2/20.5/21.7/26.8C Hum 76.0% (2026-09-05 18:25:08)
UB3APB-WY>APRS,TCPIP*,qAC,T2MOSCOW:!4435.05N/04007.56E_000/000t068h77 Temp 26.1/20.2/21.6/26.8C Hum 77.0% (2026-09-05 18:30:15)
UB3APB-WY>APRS,TCPIP*,qAC,T2TROITSK:!4435.05N/04007.56E_000/000t068h76 Temp 26.1/20.2/21.5/26.8C Hum 76.0% (2026-09-05 18:35:21)
UB3APB-WY>APRS,TCPIP*,qAC,T2ADG:!4435.05N/04007.56E_000/000t068h76 Temp 26.1/19.9/21.1/26.7C Hum 76.0% (2026-09-05 18:40:27)
UB3APB-WY>APRS,TCPIP*,qAC,T2ADG:!4435.05N/04007.56E_000/000t067h78 Temp 26.1/19.7/20.9/26.7C Hum 78.0% (2026-09-05 18:45:33)
UB3APB-WY>APRS,TCPIP*,qAC,T2ADG:!4435.05N/04007.56E_000/000t067h79 Temp 26.0/19.3/20.7/26.7C Hum 79.0% (2026-09-05 18:50:39)
UB3APB-WY>APRS,TCPIP*,qAC,T2VENYOV:!4435.05N/04007.56E_000/000t067h80 Temp 26.1/19.3/20.6/26.6C Hum 80.0% (2026-09-05 18:55:44)
UB3APB-WY>APRS,TCPIP*,qAC,T2MOSCOW:!4435.05N/04007.56E_000/000t066h80 Temp 26.0/19.1/20.5/26.5C Hum 80.0% (2026-09-05 19:00:50)
UB3APB-WY>APRS,TCPIP*,qAC,T2RUSSIA2:!4435.05N/04007.56E_000/000t066h82 Temp 26.0/18.8/20.2/26.5C Hum 82.0% (2026-09-05 19:05:57)
UB3APB-WY>APRS,TCPIP*,qAC,T2MOSCOW:!4435.05N/04007.56E_000/000t065h84 Temp 26.0/18.4/20.1/26.5C Hum 84.0% (2026-09-05 19:11:03)
UB3APB-WY>APRS,TCPIP*,qAC,T2TROITSK:!4435.05N/04007.56E_000/000t065h83 Temp 26.0/18.4/20.2/26.4C Hum 83.0% (2026-09-05 19:16:10)
UB3APB-WY>APRS,TCPIP*,qAC,T2RUSSIA2:!4435.05N/04007.56E_000/000t065h81 Temp 26.0/18.6/20.4/26.4C Hum 81.0% (2026-09-05 19:21:16)
UB3APB-WY>APRS,TCPIP*,qAC,T2TROITSK:!4435.05N/04007.56E_000/000t066h80 Temp 26.0/18.9/20.6/26.3C Hum 80.0% (2026-09-05 19:26:22)
UB3APB-WY>APRS,TCPIP*,qAC,T2MOSCOW:!4435.05N/04007.56E_000/000t066h80 Temp 26.0/18.9/20.7/26.3C Hum 80.0% (2026-09-05 19:31:28)
UB3APB-WY>APRS,TCPIP*,qAC,T2VENYOV:!4435.05N/04007.56E_000/000t066h79 Temp 26.0/19.1/20.7/26.3C Hum 79.0% (2026-09-05 19:36:34)
UB3APB-WY>APRS,TCPIP*,qAC,T2MOSCOW:!4435.05N/04007.56E_000/000t066h81 Temp 26.0/18.9/20.5/26.2C Hum 81.0% (2026-09-05 19:41:41)
UB3APB-WY>APRS,TCPIP*,qAC,T2RUSSIA2:!4435.05N/04007.56E_000/000t065h84 Temp 26.0/18.3/20.3/26.2C Hum 84.0% (2026-09-05 19:46:48)
UB3APB-WY>APRS,TCPIP*,qAC,T2MOSCOW:!4435.05N/04007.56E_000/000t065h84 Temp 25.9/18.3/20.0/26.1C Hum 84.0% (2026-09-05 19:51:54)
UB3APB-WY>APRS,TCPIP*,qAC,T2TROITSK:!4435.05N/04007.56E_000/000t065h85 Temp 26.0/18.3/20.0/26.1C Hum 85.0% (2026-09-05 19:57:00)
UB3APB-WY>APRS,TCPIP*,qAC,T2ADG:!4435.05N/04007.56E_000/000t065h87 Temp 25.9/18.2/19.8/26.0C Hum 87.0% (2026-09-05 20:02:07)
UB3APB-WY>APRS,TCPIP*,qAC,T2TROITSK:!4435.05N/04007.56E_000/000t065h87 Temp 26.0/18.2/19.6/26.0C Hum 87.0% (2026-09-05 20:07:14)
UB3APB-WY>APRS,TCPIP*,qAC,T2MOSCOW:!4435.05N/04007.56E_000/000t064h87 Temp 26.0/18.0/19.6/25.9C Hum 87.0% (2026-09-05 20:12:20)
UB3APB-WY>APRS,TCPIP*,qAC,T2VENYOV:!4435.05N/04007.56E_000/000t064h88 Temp 25.9/17.9/19.3/25.9C Hum 88.0% (2026-09-05 20:17:27)
UB3APB-WY>APRS,TCPIP*,qAC,T2TROITSK:!4435.05N/04007.56E_000/000t064h88 Temp 26.0/17.9/19.1/25.8C Hum 88.0% (2026-09-05 20:22:34)
UB3APB-WY>APRS,TCPIP*,qAC,T2VENYOV:!4435.05N/04007.56E_000/000t065h87 Temp 25.9/18.1/19.5/25.8C Hum 87.0% (2026-09-05 20:27:40)
UB3APB-WY>APRS,TCPIP*,qAC,T2ADG:!4435.05N/04007.56E_000/000t064h87 Temp 25.8/17.9/19.3/25.8C Hum 87.0% (2026-09-05 20:32:47)
UB3APB-WY>APRS,TCPIP*,qAC,T2MOSCOW:!4435.05N/04007.56E_000/000t064h88 Temp 24.8/17.9/19.3/25.7C Hum 88.0% (2026-09-05 20:37:53)
UB3APB-WY>APRS,TCPIP*,qAC,T2MOSCOW:!4435.05N/04007.56E_000/000t064h88 Temp 24.0/17.8/19.2/25.7C Hum 88.0% (2026-09-05 20:43:00)
UB3APB-WY>APRS,TCPIP*,qAC,T2TROITSK:!4435.05N/04007.56E_000/000t064h89 Temp 23.3/17.6/19.2/25.7C Hum 89.0% (2026-09-05 20:48:06)
UB3APB-WY>APRS,TCPIP*,qAC,T2ADG:!4435.05N/04007.56E_000/000t064h89 Temp 22.8/17.8/19.1/25.6C Hum 89.0% (2026-09-05 20:53:12)
UB3APB-WY>APRS,TCPIP*,qAC,T2ADG:!4435.05N/04007.56E_000/000t064h89 Temp 22.5/17.8/19.1/25.5C Hum 89.0% (2026-09-05 20:58:19)
UB3APB-WY>APRS,TCPIP*,qAC,T2ADG:!4435.05N/04007.56E_000/000t064h90 Temp 22.2/17.7/19.0/25.5C Hum 90.0% (2026-09-05 21:03:25)
UB3APB-WY>APRS,TCPIP*,qAC,T2MOSCOW:!4435.05N/04007.56E_000/000t064h90 Temp 22.0/17.6/18.9/25.4C Hum 90.0% (2026-09-05 21:08:32)
UB3APB-WY>APRS,TCPIP*,qAC,T2VENYOV:!4435.05N/04007.56E_000/000t063h90 Temp 22.0/17.4/18.8/25.4C Hum 90.0% (2026-09-05 21:13:39)
UB3APB-WY>APRS,TCPIP*,qAC,T2RUSSIA2:!4435.05N/04007.56E_000/000t063h91 Temp 21.9/17.4/18.6/25.3C Hum 91.0% (2026-09-05 21:18:45)
UB3APB-WY>APRS,TCPIP*,qAC,T2TROITSK:!4435.05N/04007.56E_000/000t063h91 Temp 21.9/17.3/18.5/25.3C Hum 91.0% (2026-09-05 21:23:52)
UB3APB-WY>APRS,TCPIP*,qAC,T2VENYOV:!4435.05N/04007.56E_000/000t063h92 Temp 22.0/17.2/18.4/25.3C Hum 92.0% (2026-09-05 21:28:57)
UB3APB-WY>APRS,TCPIP*,qAC,T2MOSCOW:!4435.05N/04007.56E_000/000t063h92 Temp 21.9/17.0/18.3/25.3C Hum 92.0% (2026-09-05 21:34:03)
UB3APB-WY>APRS,TCPIP*,qAC,T2ADG:!4435.05N/04007.56E_000/000t063h93 Temp 21.9/17.0/18.2/25.2C Hum 93.0% (2026-09-05 21:39:10)
UB3APB-WY>APRS,TCPIP*,qAC,T2VENYOV:!4435.05N/04007.56E_000/000t062h93 Temp 21.9/16.9/18.2/25.2C Hum 93.0% (2026-09-05 21:44:16)
UB3APB-WY>APRS,TCPIP*,qAC,T2TROITSK:!4435.05N/04007.56E_000/000t062h93 Temp 21.9/16.9/18.1/25.1C Hum 93.0% (2026-09-05 21:49:22)
UB3APB-WY>APRS,TCPIP*,qAC,T2ADG:!4435.05N/04007.56E_000/000t062h93 Temp 21.8/16.8/18.1/25.1C Hum 93.0% (2026-09-05 21:54:29)
UB3APB-WY>APRS,TCPIP*,qAC,T2RUSSIA2:!4435.05N/04007.56E_000/000t062h93 Temp 21.8/16.9/18.1/25.0C Hum 93.0% (2026-09-05 21:59:35)
UB3APB-WY>APRS,TCPIP*,qAC,T2VENYOV:!4435.05N/04007.56E_000/000t062h94 Temp 21.7/16.7/17.9/25.0C Hum 94.0% (2026-09-05 22:04:42)
UB3APB-WY>APRS,TCPIP*,qAC,T2ADG:!4435.05N/04007.56E_000/000t062h94 Temp 21.7/16.7/17.9/24.9C Hum 94.0% (2026-09-05 22:09:48)
UB3APB-WY>APRS,TCPIP*,qAC,T2TROITSK:!4435.05N/04007.56E_000/000t062h94 Temp 21.7/16.7/17.8/24.9C Hum 94.0% (2026-09-05 22:14:54)
UB3APB-WY>APRS,TCPIP*,qAC,T2RUSSIA2:!4435.05N/04007.56E_000/000t062h94 Temp 21.6/16.6/17.7/24.8C Hum 94.0% (2026-09-05 22:20:01)
UB3APB-WY>APRS,TCPIP*,qAC,T2ADG:!4435.05N/04007.56E_000/000t062h94 Temp 21.6/16.6/17.7/24.8C Hum 94.0% (2026-09-05 22:25:07)
UB3APB-WY>APRS,TCPIP*,qAC,T2ADG:!4435.05N/04007.56E_000/000t062h94 Temp 21.5/16.5/17.6/24.8C Hum 94.0% (2026-09-05 22:30:14)
UB3APB-WY>APRS,TCPIP*,qAC,T2ADG:!4435.05N/04007.56E_000/000t062h95 Temp 21.5/16.4/17.6/24.7C Hum 95.0% (2026-09-05 22:35:20)
UB3APB-WY>APRS,TCPIP*,qAC,T2VENYOV:!4435.05N/04007.56E_000/000t062h95 Temp 21.5/16.4/17.5/24.7C Hum 95.0% (2026-09-05 22:40:26)
UB3APB-WY>APRS,TCPIP*,qAC,T2TROITSK:!4435.05N/04007.56E_000/000t061h95 Temp 21.5/16.3/17.4/24.7C Hum 95.0% (2026-09-05 22:45:32)
UB3APB-WY>APRS,TCPIP*,qAC,T2TROITSK:!4435.05N/04007.56E_000/000t061h95 Temp 21.5/16.2/17.3/24.6C Hum 95.0% (2026-09-05 22:50:38)
UB3APB-WY>APRS,TCPIP*,qAC,T2RUSSIA2:!4435.05N/04007.56E_000/000t061h95 Temp 21.5/16.2/17.2/24.5C Hum 95.0% (2026-09-05 22:55:45)
UB3APB-WY>APRS,TCPIP*,qAC,T2TROITSK:!4435.05N/04007.56E_000/000t061h96 Temp 21.5/16.1/17.1/24.5C Hum 96.0% (2026-09-05 23:00:51)
UB3APB-WY>APRS,TCPIP*,qAC,T2TROITSK:!4435.05N/04007.56E_000/000t061h96 Temp 21.4/16.0/17.1/24.5C Hum 96.0% (2026-09-05 23:05:57)
UB3APB-WY>APRS,TCPIP*,qAC,T2TROITSK:!4435.05N/04007.56E_000/000t061h96 Temp 21.5/16.0/17.1/24.4C Hum 96.0% (2026-09-05 23:11:03)
UB3APB-WY>APRS,TCPIP*,qAC,T2VENYOV:!4435.05N/04007.56E_000/000t061h96 Temp 21.4/15.9/17.0/24.4C Hum 96.0% (2026-09-05 23:16:10)
UB3APB-WY>APRS,TCPIP*,qAC,T2TROITSK:!4435.05N/04007.56E_000/000t061h96 Temp 21.3/15.9/17.0/24.3C Hum 96.0% (2026-09-05 23:21:16)
UB3APB-WY>APRS,TCPIP*,qAC,T2VENYOV:!4435.05N/04007.56E_000/000t061h96 Temp 21.5/15.9/16.9/24.3C Hum 96.0% (2026-09-05 23:26:22)
UB3APB-WY>APRS,TCPIP*,qAC,T2TROITSK:!4435.05N/04007.56E_000/000t060h96 Temp 21.7/15.7/16.9/24.3C Hum 96.0% (2026-09-05 23:31:28)
UB3APB-WY>APRS,TCPIP*,qAC,T2MOSCOW:!4435.05N/04007.56E_000/000t060h96 Temp 22.0/15.7/16.8/24.2C Hum 96.0% (2026-09-05 23:36:34)
UB3APB-WY>APRS,TCPIP*,qAC,T2ADG:!4435.05N/04007.56E_000/000t060h96 Temp 21.9/15.7/16.8/24.2C Hum 96.0% (2026-09-05 23:41:41)
UB3APB-WY>APRS,TCPIP*,qAC,T2VENYOV:!4435.05N/04007.56E_000/000t060h96 Temp 22.0/15.6/16.8/24.1C Hum 96.0% (2026-09-05 23:46:47)
UB3APB-WY>APRS,TCPIP*,qAC,T2ADG:!4435.05N/04007.56E_000/000t060h96 Temp 22.3/15.7/16.8/24.0C Hum 96.0% (2026-09-05 23:51:53)
UB3APB-WY>APRS,TCPIP*,qAC,T2VENYOV:!4435.05N/04007.56E_000/000t060h96 Temp 22.7/15.7/16.8/24.0C Hum 96.0% (2026-09-05 23:56:59)
UB3APB-WY>APRS,TCPIP*,qAC,T2RUSSIA2:!4435.05N/04007.56E_000/000t060h96 Temp 23.1/15.7/16.7/24.0C Hum 96.0% (2026-09-06 00:02:05)
UB3APB-WY>APRS,TCPIP*,qAC,T2ADG:!4435.05N/04007.56E_000/000t060h96 Temp 23.3/15.5/16.7/23.9C Hum 96.0% (2026-09-06 00:07:12)
UB3APB-WY>APRS,TCPIP*,qAC,T2RUSSIA2:!4435.05N/04007.56E_000/000t060h97 Temp 23.6/15.6/16.6/23.9C Hum 97.0% (2026-09-06 00:12:18)
UB3APB-WY>APRS,TCPIP*,qAC,T2TROITSK:!4435.05N/04007.56E_000/000t060h97 Temp 23.8/15.5/16.6/23.8C Hum 97.0% (2026-09-06 00:17:24)
UB3APB-WY>APRS,TCPIP*,qAC,T2ADG:!4435.05N/04007.56E_000/000t060h97 Temp 23.8/15.4/16.6/23.8C Hum 97.0% (2026-09-06 00:22:33)
UB3APB-WY>APRS,TCPIP*,qAC,T2RUSSIA2:!4435.05N/04007.56E_000/000t060h97 Temp 24.0/15.4/16.5/23.8C Hum 97.0% (2026-09-06 00:27:39)
UB3APB-WY>APRS,TCPIP*,qAC,T2RUSSIA2:!4435.05N/04007.56E_000/000t060h97 Temp 24.1/15.4/16.5/23.7C Hum 97.0% (2026-09-06 00:32:45)
UB3APB-WY>APRS,TCPIP*,qAC,T2VENYOV:!4435.05N/04007.56E_000/000t060h97 Temp 24.2/15.4/16.4/23.7C Hum 97.0% (2026-09-06 00:37:51)
UB3APB-WY>APRS,TCPIP*,qAC,T2TROITSK:!4435.05N/04007.56E_000/000t060h97 Temp 24.3/15.3/16.4/23.6C Hum 97.0% (2026-09-06 00:42:58)
UB3APB-WY>APRS,TCPIP*,qAC,T2VENYOV:!4435.05N/04007.56E_000/000t060h97 Temp 24.4/15.3/16.4/23.6C Hum 97.0% (2026-09-06 00:48:04)
UB3APB-WY>APRS,TCPIP*,qAC,T2TROITSK:!4435.05N/04007.56E_000/000t059h97 Temp 24.4/15.2/16.2/23.6C Hum 97.0% (2026-09-06 00:53:10)
UB3APB-WY>APRS,TCPIP*,qAC,T2VENYOV:!4435.05N/04007.56E_000/000t059h97 Temp 24.5/15.2/16.2/23.5C Hum 97.0% (2026-09-06 00:58:16)
UB3APB-WY>APRS,TCPIP*,qAC,T2VENYOV:!4435.05N/04007.56E_000/000t059h97 Temp 24.6/15.1/16.2/23.4C Hum 97.0% (2026-09-06 01:03:23)
UB3APB-WY>APRS,TCPIP*,qAC,T2ADG:!4435.05N/04007.56E_000/000t059h97 Temp 24.6/15.0/16.2/23.3C Hum 97.0% (2026-09-06 01:08:29)
UB3APB-WY>APRS,TCPIP*,qAC,T2RUSSIA2:!4435.05N/04007.56E_000/000t059h97 Temp 24.6/15.1/16.2/23.3C Hum 97.0% (2026-09-06 01:13:34)
UB3APB-WY>APRS,TCPIP*,qAC,T2RUSSIA2:!4435.05N/04007.56E_000/000t059h97 Temp 24.7/15.0/16.1/23.3C Hum 97.0% (2026-09-06 01:18:41)
UB3APB-WY>APRS,TCPIP*,qAC,T2TROITSK:!4435.05N/04007.56E_000/000t059h97 Temp 24.7/15.0/16.1/23.3C Hum 97.0% (2026-09-06 01:23:47)
UB3APB-WY>APRS,TCPIP*,qAC,T2VENYOV:!4435.05N/04007.56E_000/000t059h97 Temp 24.7/15.1/16.1/23.2C Hum 97.0% (2026-09-06 01:28:53)
UB3APB-WY>APRS,TCPIP*,qAC,T2RUSSIA2:!4435.05N/04007.56E_000/000t059h97 Temp 24.7/15.1/16.1/23.1C Hum 97.0% (2026-09-06 01:33:59)
UB3APB-WY>APRS,TCPIP*,qAC,T2MOSCOW:!4435.05N/04007.56E_000/000t059h97 Temp 24.8/15.1/16.2/23.1C Hum 97.0% (2026-09-06 01:39:05)
UB3APB-WY>APRS,TCPIP*,qAC,T2MOSCOW:!4435.05N/04007.56E_000/000t059h97 Temp 24.7/15.0/16.1/23.0C Hum 97.0% (2026-09-06 01:44:11)
UB3APB-WY>APRS,TCPIP*,qAC,T2TROITSK:!4435.05N/04007.56E_000/000t059h97 Temp 24.8/14.9/16.0/23.0C Hum 97.0% (2026-09-06 01:49:17)
UB3APB-WY>APRS,TCPIP*,qAC,T2VENYOV:!4435.05N/04007.56E_000/000t059h97 Temp 24.8/14.9/15.9/22.9C Hum 97.0% (2026-09-06 01:54:23)
UB3APB-WY>APRS,TCPIP*,qAC,T2VENYOV:!4435.05N/04007.56E_000/000t059h98 Temp 24.8/14.9/15.9/22.9C Hum 98.0% (2026-09-06 01:59:29)
UB3APB-WY>APRS,TCPIP*,qAC,T2TROITSK:!4435.05N/04007.56E_000/000t059h98 Temp 24.8/14.9/15.9/22.9C Hum 98.0% (2026-09-06 02:04:36)
UB3APB-WY>APRS,TCPIP*,qAC,T2VENYOV:!4435.05N/04007.56E_000/000t059h97 Temp 24.8/14.9/16.0/22.8C Hum 97.0% (2026-09-06 02:09:43)
UB3APB-WY>APRS,TCPIP*,qAC,T2RUSSIA2:!4435.05N/04007.56E_000/000t059h97 Temp 24.8/15.0/16.0/22.8C Hum 97.0% (2026-09-06 02:14:49)
UB3APB-WY>APRS,TCPIP*,qAC,T2RUSSIA2:!4435.05N/04007.56E_000/000t059h97 Temp 24.8/15.0/16.0/22.8C Hum 97.0% (2026-09-06 02:19:56)
UB3APB-WY>APRS,TCPIP*,qAC,T2VENYOV:!4435.05N/04007.56E_000/000t059h97 Temp 24.8/15.0/16.1/22.7C Hum 97.0% (2026-09-06 02:25:02)
UB3APB-WY>APRS,TCPIP*,qAC,T2VENYOV:!4435.05N/04007.56E_000/000t059h97 Temp 24.8/14.9/16.1/22.7C Hum 97.0% (2026-09-06 02:30:08)
UB3APB-WY>APRS,TCPIP*,qAC,T2MOSCOW:!4435.05N/04007.56E_000/000t059h97 Temp 24.8/15.0/16.1/22.6C Hum 97.0% (2026-09-06 02:35:15)
UB3APB-WY>APRS,TCPIP*,qAC,T2ADG:!4435.05N/04007.56E_000/000t059h97 Temp 24.8/14.9/16.0/22.6C Hum 97.0% (2026-09-06 02:40:21)
UB3APB-WY>APRS,TCPIP*,qAC,T2TROITSK:!4435.05N/04007.56E_000/000t059h97 Temp 24.9/14.9/15.9/22.5C Hum 97.0% (2026-09-06 02:45:27)
UB3APB-WY>APRS,TCPIP*,qAC,T2RUSSIA2:!4435.05N/04007.56E_000/000t059h97 Temp 24.9/14.9/16.0/22.5C Hum 97.0% (2026-09-06 02:50:33)
UB3APB-WY>APRS,TCPIP*,qAC,T2ADG:!4435.05N/04007.56E_000/000t059h97 Temp 24.9/14.9/16.0/22.4C Hum 97.0% (2026-09-06 02:55:39)
UB3APB-WY>APRS,TCPIP*,qAC,T2MOSCOW:!4435.05N/04007.56E_000/000t059h97 Temp 24.9/15.0/16.0/22.4C Hum 97.0% (2026-09-06 03:00:46)
UB3APB-WY>APRS,TCPIP*,qAC,T2TROITSK:!4435.05N/04007.56E_000/000t059h97 Temp 24.9/14.9/15.9/22.3C Hum 97.0% (2026-09-06 03:05:52)
UB3APB-WY>APRS,TCPIP*,qAC,T2TROITSK:!4435.05N/04007.56E_000/000t059h97 Temp 24.8/14.9/15.8/22.3C Hum 97.0% (2026-09-06 03:10:59)
UB3APB-WY>APRS,TCPIP*,qAC,T2VENYOV:!4435.05N/04007.56E_000/000t059h97 Temp 24.8/14.9/15.9/22.3C Hum 97.0% (2026-09-06 03:16:07)
UB3APB-WY>APRS,TCPIP*,qAC,T2MOSCOW:!4435.05N/04007.56E_000/000t058h97 Temp 24.8/14.7/15.7/22.3C Hum 97.0% (2026-09-06 03:21:14)
UB3APB-WY>APRS,TCPIP*,qAC,T2VENYOV:!4435.05N/04007.56E_000/000t058h97 Temp 24.8/14.6/15.7/22.2C Hum 97.0% (2026-09-06 03:26:20)
UB3APB-WY>APRS,TCPIP*,qAC,T2VENYOV:!4435.05N/04007.56E_000/000t058h97 Temp 24.9/14.6/15.6/22.2C Hum 97.0% (2026-09-06 03:31:26)
UB3APB-WY>APRS,TCPIP*,qAC,T2TROITSK:!4435.05N/04007.56E_000/000t058h97 Temp 24.9/14.6/15.6/22.1C Hum 97.0% (2026-09-06 03:36:32)
UB3APB-WY>APRS,TCPIP*,qAC,T2VENYOV:!4435.05N/04007.56E_000/000t058h97 Temp 24.8/14.6/15.6/22.0C Hum 97.0% (2026-09-06 03:41:38)
UB3APB-WY>APRS,TCPIP*,qAC,T2TROITSK:!4435.05N/04007.56E_000/000t058h97 Temp 24.8/14.6/15.6/22.0C Hum 97.0% (2026-09-06 03:46:44)
UB3APB-WY>APRS,TCPIP*,qAC,T2MOSCOW:!4435.05N/04007.56E_000/000t058h97 Temp 24.9/14.5/15.6/22.0C Hum 97.0% (2026-09-06 03:51:51)
UB3APB-WY>APRS,TCPIP*,qAC,T2TROITSK:!4435.05N/04007.56E_000/000t058h97 Temp 24.8/14.5/15.6/22.0C Hum 97.0% (2026-09-06 03:56:57)
UB3APB-WY>APRS,TCPIP*,qAC,T2MOSCOW:!4435.05N/04007.56E_000/000t058h97 Temp 24.8/14.4/15.6/21.9C Hum 97.0% (2026-09-06 04:02:03)
UB3APB-WY>APRS,TCPIP*,qAC,T2VENYOV:!4435.05N/04007.56E_000/000t058h97 Temp 24.8/14.4/15.5/21.9C Hum 97.0% (2026-09-06 04:07:09)
UB3APB-WY>APRS,TCPIP*,qAC,T2ADG:!4435.05N/04007.56E_000/000t058h97 Temp 24.8/14.4/15.5/21.8C Hum 97.0% (2026-09-06 04:12:15)
UB3APB-WY>APRS,TCPIP*,qAC,T2VENYOV:!4435.05N/04007.56E_000/000t058h97 Temp 24.8/14.5/15.5/21.8C Hum 97.0% (2026-09-06 04:17:22)
UB3APB-WY>APRS,TCPIP*,qAC,T2TROITSK:!4435.05N/04007.56E_000/000t058h97 Temp 24.8/14.4/15.4/21.8C Hum 97.0% (2026-09-06 04:22:28)
UB3APB-WY>APRS,TCPIP*,qAC,T2MOSCOW:!4435.05N/04007.56E_000/000t058h97 Temp 24.8/14.4/15.4/21.8C Hum 97.0% (2026-09-06 04:27:34)
UB3APB-WY>APRS,TCPIP*,qAC,T2TROITSK:!4435.05N/04007.56E_000/000t058h97 Temp 24.8/14.4/15.4/21.7C Hum 97.0% (2026-09-06 04:32:41)
UB3APB-WY>APRS,TCPIP*,qAC,T2TROITSK:!4435.05N/04007.56E_000/000t058h97 Temp 24.8/14.4/15.3/21.7C Hum 97.0% (2026-09-06 04:37:47)
UB3APB-WY>APRS,TCPIP*,qAC,T2RUSSIA2:!4435.05N/04007.56E_000/000t058h97 Temp 24.7/14.4/15.4/21.6C Hum 97.0% (2026-09-06 04:42:54)
UB3APB-WY>APRS,TCPIP*,qAC,T2ADG:!4435.05N/04007.56E_000/000t058h97 Temp 24.7/14.4/15.4/21.6C Hum 97.0% (2026-09-06 04:48:01)
UB3APB-WY>APRS,TCPIP*,qAC,T2MOSCOW:!4435.05N/04007.56E_000/000t058h97 Temp 24.7/14.3/15.3/21.6C Hum 97.0% (2026-09-06 04:53:07)
UB3APB-WY>APRS,TCPIP*,qAC,T2VENYOV:!4435.05N/04007.56E_000/000t058h97 Temp 24.7/14.2/15.3/21.5C Hum 97.0% (2026-09-06 04:58:13)
UB3APB-WY>APRS,TCPIP*,qAC,T2RUSSIA2:!4435.05N/04007.56E_000/000t058h97 Temp 24.8/14.2/15.3/21.5C Hum 97.0% (2026-09-06 05:03:19)
UB3APB-WY>APRS,TCPIP*,qAC,T2TROITSK:!4435.05N/04007.56E_000/000t057h97 Temp 24.8/14.1/15.1/21.5C Hum 97.0% (2026-09-06 05:08:25)
UB3APB-WY>APRS,TCPIP*,qAC,T2TROITSK:!4435.05N/04007.56E_000/000t057h97 Temp 24.7/14.1/15.1/21.4C Hum 97.0% (2026-09-06 05:13:32)
UB3APB-WY>APRS,TCPIP*,qAC,T2RUSSIA2:!4435.05N/04007.56E_000/000t058h97 Temp 24.7/14.2/15.1/21.4C Hum 97.0% (2026-09-06 05:18:38)
UB3APB-WY>APRS,TCPIP*,qAC,T2TROITSK:!4435.05N/04007.56E_000/000t057h97 Temp 24.7/14.1/15.0/21.4C Hum 97.0% (2026-09-06 05:23:44)
UB3APB-WY>APRS,TCPIP*,qAC,T2VENYOV:!4435.05N/04007.56E_000/000t057h97 Temp 24.8/14.0/15.0/21.3C Hum 97.0% (2026-09-06 05:28:50)
UB3APB-WY>APRS,TCPIP*,qAC,T2MOSCOW:!4435.05N/04007.56E_000/000t057h97 Temp 24.7/13.9/14.9/21.3C Hum 97.0% (2026-09-06 05:33:57)
UB3APB-WY>APRS,TCPIP*,qAC,T2TROITSK:!4435.05N/04007.56E_000/000t057h98 Temp 24.7/13.9/14.9/21.3C Hum 98.0% (2026-09-06 05:39:04)
UB3APB-WY>APRS,TCPIP*,qAC,T2ADG:!4435.05N/04007.56E_000/000t057h97 Temp 24.7/14.0/14.9/21.3C Hum 97.0% (2026-09-06 05:44:10)
UB3APB-WY>APRS,TCPIP*,qAC,T2MOSCOW:!4435.05N/04007.56E_000/000t057h97 Temp 24.7/14.1/15.0/21.2C Hum 97.0% (2026-09-06 05:49:16)
UB3APB-WY>APRS,TCPIP*,qAC,T2RUSSIA2:!4435.05N/04007.56E_000/000t058h97 Temp 24.7/14.2/15.0/21.2C Hum 97.0% (2026-09-06 05:54:22)
UB3APB-WY>APRS,TCPIP*,qAC,T2TROITSK:!4435.05N/04007.56E_000/000t058h97 Temp 24.7/14.2/15.0/21.1C Hum 97.0% (2026-09-06 05:59:28)
UB3APB-WY>APRS,TCPIP*,qAC,T2VENYOV:!4435.05N/04007.56E_000/000t058h97 Temp 24.7/14.2/15.1/21.1C Hum 97.0% (2026-09-06 06:04:34)
UB3APB-WY>APRS,TCPIP*,qAC,T2MOSCOW:!4435.05N/04007.56E_000/000t058h97 Temp 24.8/14.2/15.0/21.1C Hum 97.0% (2026-09-06 06:09:41)
UB3APB-WY>APRS,TCPIP*,qAC,T2VENYOV:!4435.05N/04007.56E_000/000t058h97 Temp 24.5/14.3/15.1/21.1C Hum 97.0% (2026-09-06 06:14:47)
UB3APB-WY>APRS,TCPIP*,qAC,T2ADG:!4435.05N/04007.56E_000/000t058h96 Temp 24.5/14.3/15.1/21.0C Hum 96.0% (2026-09-06 06:19:53)
UB3APB-WY>APRS,TCPIP*,qAC,T2RUSSIA2:!4435.05N/04007.56E_000/000t058h96 Temp 24.7/14.5/15.1/21.0C Hum 96.0% (2026-09-06 06:24:59)
UB3APB-WY>APRS,TCPIP*,qAC,T2ADG:!4435.05N/04007.56E_000/000t060h95 Temp 24.6/15.4/15.8/21.0C Hum 95.0% (2026-09-06 06:30:05)
UB3APB-WY>APRS,TCPIP*,qAC,T2ADG:!4435.05N/04007.56E_000/000t062h91 Temp 24.6/16.7/15.7/20.9C Hum 91.0% (2026-09-06 06:35:10)
UB3APB-WY>APRS,TCPIP*,qAC,T2VENYOV:!4435.05N/04007.56E_000/000t060h91 Temp 24.6/15.4/16.2/20.9C Hum 91.0% (2026-09-06 06:40:16)
UB3APB-WY>APRS,TCPIP*,qAC,T2RUSSIA2:!4435.05N/04007.56E_000/000t060h92 Temp 24.5/15.3/17.6/20.8C Hum 92.0% (2026-09-06 06:45:22)
UB3APB-WY>APRS,TCPIP*,qAC,T2RUSSIA2:!4435.05N/04007.56E_000/000t060h92 Temp 24.6/15.5/16.1/20.9C Hum 92.0% (2026-09-06 06:50:27)
UB3APB-WY>APRS,TCPIP*,qAC,T2RUSSIA2:!4435.05N/04007.56E_000/000t060h92 Temp 24.6/15.7/16.3/20.8C Hum 92.0% (2026-09-06 06:55:34)
UB3APB-WY>APRS,TCPIP*,qAC,T2VENYOV:!4435.05N/04007.56E_000/000t061h91 Temp 24.6/16.0/16.5/20.8C Hum 91.0% (2026-09-06 07:00:39)
UB3APB-WY>APRS,TCPIP*,qAC,T2VENYOV:!4435.05N/04007.56E_000/000t061h90 Temp 24.6/16.3/16.6/20.8C Hum 90.0% (2026-09-06 07:05:45)
UB3APB-WY>APRS,TCPIP*,qAC,T2RUSSIA2:!4435.05N/04007.56E_000/000t062h90 Temp 24.6/16.5/16.9/20.8C Hum 90.0% (2026-09-06 07:10:51)
UB3APB-WY>APRS,TCPIP*,qAC,T2VENYOV:!4435.05N/04007.56E_000/000t062h89 Temp 24.6/16.7/17.1/20.8C Hum 89.0% (2026-09-06 07:15:57)
UB3APB-WY>APRS,TCPIP*,qAC,T2ADG:!4435.05N/04007.56E_000/000t063h88 Temp 24.6/17.1/17.3/20.8C Hum 88.0% (2026-09-06 07:21:03)
UB3APB-WY>APRS,TCPIP*,qAC,T2RUSSIA2:!4435.05N/04007.56E_000/000t063h87 Temp 24.6/17.2/17.6/20.7C Hum 87.0% (2026-09-06 07:26:08)
UB3APB-WY>APRS,TCPIP*,qAC,T2VENYOV:!4435.05N/04007.56E_000/000t064h87 Temp 24.5/17.6/17.8/20.7C Hum 87.0% (2026-09-06 07:31:14)
UB3APB-WY>APRS,TCPIP*,qAC,T2ADG:!4435.05N/04007.56E_000/000t064h86 Temp 24.6/17.8/18.1/20.7C Hum 86.0% (2026-09-06 07:36:20)
UB3APB-WY>APRS,TCPIP*,qAC,T2MOSCOW:!4435.05N/04007.56E_000/000t064h85 Temp 24.6/18.0/18.1/20.6C Hum 85.0% (2026-09-06 07:41:25)
UB3APB-WY>APRS,TCPIP*,qAC,T2RUSSIA2:!4435.05N/04007.56E_000/000t065h84 Temp 24.6/18.3/18.4/20.6C Hum 84.0% (2026-09-06 07:46:31)
UB3APB-WY>APRS,TCPIP*,qAC,T2VENYOV:!4435.05N/04007.56E_000/000t065h84 Temp 24.6/18.6/18.6/20.7C Hum 84.0% (2026-09-06 07:51:37)
UB3APB-WY>APRS,TCPIP*,qAC,T2TROITSK:!4435.05N/04007.56E_000/000t066h83 Temp 24.7/18.9/18.8/20.6C Hum 83.0% (2026-09-06 07:56:43)
UB3APB-WY>APRS,TCPIP*,qAC,T2RUSSIA2:!4435.05N/04007.56E_000/000t066h83 Temp 24.6/19.1/19.3/20.6C Hum 83.0% (2026-09-06 08:01:49)
UB3APB-WY>APRS,TCPIP*,qAC,T2VENYOV:!4435.05N/04007.56E_000/000t067h82 Temp 24.6/19.6/19.5/20.6C Hum 82.0% (2026-09-06 08:06:54)
UB3APB-WY>APRS,TCPIP*,qAC,T2VENYOV:!4435.05N/04007.56E_000/000t068h79 Temp 24.7/20.0/19.8/20.6C Hum 79.0% (2026-09-06 08:12:01)
UB3APB-WY>APRS,TCPIP*,qAC,T2TROITSK:!4435.05N/04007.56E_000/000t068h78 Temp 24.5/20.1/19.8/20.6C Hum 78.0% (2026-09-06 08:17:06)
UB3APB-WY>APRS,TCPIP*,qAC,T2VENYOV:!4435.05N/04007.56E_000/000t069h78 Temp 24.6/20.3/20.2/20.7C Hum 78.0% (2026-09-06 08:22:12)
UB3APB-WY>APRS,TCPIP*,qAC,T2RUSSIA2:!4435.05N/04007.56E_000/000t069h77 Temp 24.7/20.5/20.5/20.7C Hum 77.0% (2026-09-06 08:27:18)
UB3APB-WY>APRS,TCPIP*,qAC,T2ADG:!4435.05N/04007.56E_000/000t069h76 Temp 24.7/20.8/20.8/20.8C Hum 76.0% (2026-09-06 08:32:24)
UB3APB-WY>APRS,TCPIP*,qAC,T2MOSCOW:!4435.05N/04007.56E_000/000t070h75 Temp 24.6/21.2/21.1/20.8C Hum 75.0% (2026-09-06 08:37:30)
UB3APB-WY>APRS,TCPIP*,qAC,T2ADG:!4435.05N/04007.56E_000/000t071h74 Temp 24.6/21.4/21.2/20.8C Hum 74.0% (2026-09-06 08:42:36)
UB3APB-WY>APRS,TCPIP*,qAC,T2VENYOV:!4435.05N/04007.56E_000/000t071h73 Temp 24.6/21.9/21.7/20.9C Hum 73.0% (2026-09-06 08:47:41)
UB3APB-WY>APRS,TCPIP*,qAC,T2TROITSK:!4435.05N/04007.56E_000/000t072h72 Temp 24.7/22.0/22.1/21.0C Hum 72.0% (2026-09-06 08:52:47)
UB3APB-WY>APRS,TCPIP*,qAC,T2TROITSK:!4435.05N/04007.56E_000/000t073h71 Temp 24.8/22.6/22.5/21.1C Hum 71.0% (2026-09-06 08:57:53)
UB3APB-WY>APRS,TCPIP*,qAC,T2ADG:!4435.05N/04007.56E_000/000t072h71 Temp 24.8/22.4/22.5/21.3C Hum 71.0% (2026-09-06 09:02:58)
UB3APB-WY>APRS,TCPIP*,qAC,T2VENYOV:!4435.05N/04007.56E_000/000t073h70 Temp 24.7/23.0/22.9/21.3C Hum 70.0% (2026-09-06 09:08:04)
UB3APB-WY>APRS,TCPIP*,qAC,T2ADG:!4435.05N/04007.56E_000/000t073h69 Temp 24.8/22.9/22.9/21.5C Hum 69.0% (2026-09-06 09:13:10)
UB3APB-WY>APRS,TCPIP*,qAC,T2ADG:!4435.05N/04007.56E_000/000t073h69 Temp 24.8/22.9/23.3/21.6C Hum 69.0% (2026-09-06 09:18:15)
UB3APB-WY>APRS,TCPIP*,qAC,T2RUSSIA2:!4435.05N/04007.56E_000/000t073h68 Temp 24.8/23.0/23.4/21.7C Hum 68.0% (2026-09-06 09:23:21)
UB3APB-WY>APRS,TCPIP*,qAC,T2MOSCOW:!4435.05N/04007.56E_000/000t074h67 Temp 24.9/23.3/23.8/21.8C Hum 67.0% (2026-09-06 09:28:27)
UB3APB-WY>APRS,TCPIP*,qAC,T2TROITSK:!4435.05N/04007.56E_000/000t074h66 Temp 24.9/23.6/24.2/21.9C Hum 66.0% (2026-09-06 09:33:33)
UB3APB-WY>APRS,TCPIP*,qAC,T2TROITSK:!4435.05N/04007.56E_000/000t075h65 Temp 24.9/23.9/24.2/22.0C Hum 65.0% (2026-09-06 09:38:38)
UB3APB-WY>APRS,TCPIP*,qAC,T2TROITSK:!4435.05N/04007.56E_000/000t076h65 Temp 25.0/24.5/24.8/22.1C Hum 65.0% (2026-09-06 09:43:45)
UB3APB-WY>APRS,TCPIP*,qAC,T2TROITSK:!4435.05N/04007.56E_000/000t077h64 Temp 24.9/24.8/25.1/22.1C Hum 64.0% (2026-09-06 09:48:51)
UB3APB-WY>APRS,TCPIP*,qAC,T2TROITSK:!4435.05N/04007.56E_000/000t077h64 Temp 25.0/24.9/25.1/22.2C Hum 64.0% (2026-09-06 09:53:56)
UB3APB-WY>APRS,TCPIP*,qAC,T2VENYOV:!4435.05N/04007.56E_000/000t077h62 Temp 25.1/24.9/25.2/22.3C Hum 62.0% (2026-09-06 09:59:02)
UB3APB-WY>APRS,TCPIP*,qAC,T2ADG:!4435.05N/04007.56E_000/000t078h62 Temp 25.1/25.4/25.8/22.3C Hum 62.0% (2026-09-06 10:04:08)
UB3APB-WY>APRS,TCPIP*,qAC,T2RUSSIA2:!4435.05N/04007.56E_000/000t078h61 Temp 25.1/25.3/25.9/22.4C Hum 61.0% (2026-09-06 10:09:14)
UB3APB-WY>APRS,TCPIP*,qAC,T2ADG:!4435.05N/04007.56E_000/000t077h60 Temp 25.1/25.2/25.8/22.9C Hum 60.0% (2026-09-06 10:14:20)
UB3APB-WY>APRS,TCPIP*,qAC,T2MOSCOW:!4435.05N/04007.56E_000/000t078h53 Temp 25.1/25.3/26.2/23.2C Hum 53.0% (2026-09-06 10:19:25)
UB3APB-WY>APRS,TCPIP*,qAC,T2MOSCOW:!4435.05N/04007.56E_000/000t078h55 Temp 25.2/25.4/26.6/23.5C Hum 55.0% (2026-09-06 10:24:31)
UB3APB-WY>APRS,TCPIP*,qAC,T2TROITSK:!4435.05N/04007.56E_000/000t078h52 Temp 25.2/25.8/26.8/23.7C Hum 52.0% (2026-09-06 10:29:37)
UB3APB-WY>APRS,TCPIP*,qAC,T2MOSCOW:!4435.05N/04007.56E_000/000t080h53 Temp 25.3/26.6/27.0/23.8C Hum 53.0% (2026-09-06 10:34:43)
UB3APB-WY>APRS,TCPIP*,qAC,T2VENYOV:!4435.05N/04007.56E_000/000t080h54 Temp 25.3/26.4/26.8/23.7C Hum 54.0% (2026-09-06 10:39:48)
UB3APB-WY>APRS,TCPIP*,qAC,T2MOSCOW:!4435.05N/04007.56E_000/000t079h50 Temp 25.3/26.1/27.5/24.0C Hum 50.0% (2026-09-06 10:44:54)
UB3APB-WY>APRS,TCPIP*,qAC,T2RUSSIA2:!4435.05N/04007.56E_000/000t079h49 Temp 25.5/26.0/26.7/23.7C Hum 49.0% (2026-09-06 10:50:00)
UB3APB-WY>APRS,TCPIP*,qAC,T2TROITSK:!4435.05N/04007.56E_000/000t080h50 Temp 25.4/26.6/27.2/23.9C Hum 50.0% (2026-09-06 10:55:06)
UB3APB-WY>APRS,TCPIP*,qAC,T2VENYOV:!4435.05N/04007.56E_000/000t080h50 Temp 25.4/26.8/27.2/24.0C Hum 50.0% (2026-09-06 11:00:12)
UB3APB-WY>APRS,TCPIP*,qAC,T2TROITSK:!4435.05N/04007.56E_000/000t080h50 Temp 25.5/26.8/27.4/24.0C Hum 50.0% (2026-09-06 11:05:19)
UB3APB-WY>APRS,TCPIP*,qAC,T2RUSSIA2:!4435.05N/04007.56E_000/000t080h51 Temp 25.5/26.6/27.3/24.1C Hum 51.0% (2026-09-06 11:10:24)
UB3APB-WY>APRS,TCPIP*,qAC,T2TROITSK:!4435.05N/04007.56E_000/000t080h51 Temp 25.5/26.5/27.9/24.3C Hum 51.0% (2026-09-06 11:15:30)
UB3APB-WY>APRS,TCPIP*,qAC,T2MOSCOW:!4435.05N/04007.56E_000/000t080h49 Temp 25.5/26.8/27.9/24.2C Hum 49.0% (2026-09-06 11:20:35)
UB3APB-WY>APRS,TCPIP*,qAC,T2MOSCOW:!4435.05N/04007.56E_000/000t081h47 Temp 25.5/27.4/28.5/24.6C Hum 47.0% (2026-09-06 11:25:41)
UB3APB-WY>APRS,TCPIP*,qAC,T2MOSCOW:!4435.05N/04007.56E_000/000t080h49 Temp 25.5/26.7/28.1/24.7C Hum 49.0% (2026-09-06 11:30:47)
UB3APB-WY>APRS,TCPIP*,qAC,T2MOSCOW:!4435.05N/04007.56E_000/000t081h47 Temp 25.5/27.4/28.1/24.6C Hum 47.0% (2026-09-06 11:35:53)
UB3APB-WY>APRS,TCPIP*,qAC,T2MOSCOW:!4435.05N/04007.56E_000/000t082h46 Temp 25.5/27.6/28.2/24.4C Hum 46.0% (2026-09-06 11:40:58)
UB3APB-WY>APRS,TCPIP*,qAC,T2ADG:!4435.05N/04007.56E_000/000t081h44 Temp 25.6/27.4/28.1/24.6C Hum 44.0% (2026-09-06 11:46:04)
UB3APB-WY>APRS,TCPIP*,qAC,T2TROITSK:!4435.05N/04007.56E_000/000t081h43 Temp 25.6/27.4/28.5/24.8C Hum 43.0% (2026-09-06 11:51:10)
UB3APB-WY>APRS,TCPIP*,qAC,T2RUSSIA2:!4435.05N/04007.56E_000/000t082h42 Temp 25.7/27.9/28.5/24.8C Hum 42.0% (2026-09-06 11:56:15)
UB3APB-WY>APRS,TCPIP*,qAC,T2ADG:!4435.05N/04007.56E_000/000t082h44 Temp 25.6/27.8/28.9/25.0C Hum 44.0% (2026-09-06 12:01:22)
UB3APB-WY>APRS,TCPIP*,qAC,T2MOSCOW:!4435.05N/04007.56E_000/000t082h45 Temp 25.6/27.5/28.4/25.0C Hum 45.0% (2026-09-06 12:06:27)
UB3APB-WY>APRS,TCPIP*,qAC,T2RUSSIA2:!4435.05N/04007.56E_000/000t082h44 Temp 25.8/27.7/28.8/25.3C Hum 44.0% (2026-09-06 12:11:33)
UB3APB-WY>APRS,TCPIP*,qAC,T2VENYOV:!4435.05N/04007.56E_000/000t082h45 Temp 25.7/27.8/28.5/24.9C Hum 45.0% (2026-09-06 12:16:39)
UB3APB-WY>APRS,TCPIP*,qAC,T2VENYOV:!4435.05N/04007.56E_000/000t082h44 Temp 25.8/27.9/28.6/25.2C Hum 44.0% (2026-09-06 12:21:45)
UB3APB-WY>APRS,TCPIP*,qAC,T2VENYOV:!4435.05N/04007.56E_000/000t082h45 Temp 25.8/28.0/28.6/25.2C Hum 45.0% (2026-09-06 12:26:50)
UB3APB-WY>APRS,TCPIP*,qAC,T2ADG:!4435.05N/04007.56E_000/000t083h45 Temp 25.8/28.1/28.7/25.3C Hum 45.0% (2026-09-06 12:31:56)
UB3APB-WY>APRS,TCPIP*,qAC,T2MOSCOW:!4435.05N/04007.56E_000/000t083h45 Temp 25.8/28.2/28.8/25.4C Hum 45.0% (2026-09-06 12:37:02)
UB3APB-WY>APRS,TCPIP*,qAC,T2VENYOV:!4435.05N/04007.56E_000/000t082h44 Temp 25.9/27.8/28.2/25.3C Hum 44.0% (2026-09-06 12:42:08)
UB3APB-WY>APRS,TCPIP*,qAC,T2VENYOV:!4435.05N/04007.56E_000/000t082h45 Temp 25.9/27.8/28.6/25.5C Hum 45.0% (2026-09-06 12:47:14)
UB3APB-WY>APRS,TCPIP*,qAC,T2VENYOV:!4435.05N/04007.56E_000/000t083h44 Temp 25.9/28.3/29.1/25.6C Hum 44.0% (2026-09-06 12:52:20)
UB3APB-WY>APRS,TCPIP*,qAC,T2RUSSIA2:!4435.05N/04007.56E_000/000t084h45 Temp 25.9/28.7/29.6/26.0C Hum 45.0% (2026-09-06 12:57:56)
UB3APB-WY>APRS,TCPIP*,qAC,T2VENYOV:!4435.05N/04007.56E_000/000t083h44 Temp 25.9/28.4/29.1/26.0C Hum 44.0% (2026-09-06 13:03:01)
UB3APB-WY>APRS,TCPIP*,qAC,T2VENYOV:!4435.05N/04007.56E_000/000t083h41 Temp 26.0/28.5/29.1/25.8C Hum 41.0% (2026-09-06 13:08:07)
UB3APB-WY>APRS,TCPIP*,qAC,T2MOSCOW:!4435.05N/04007.56E_000/000t083h45 Temp 26.0/28.6/29.3/26.0C Hum 45.0% (2026-09-06 13:13:13)
UB3APB-WY>APRS,TCPIP*,qAC,T2VENYOV:!4435.05N/04007.56E_000/000t083h42 Temp 26.0/28.4/29.1/26.0C Hum 42.0% (2026-09-06 13:18:19)
UB3APB-WY>APRS,TCPIP*,qAC,T2ADG:!4435.05N/04007.56E_000/000t083h41 Temp 26.0/28.5/29.2/26.0C Hum 41.0% (2026-09-06 13:23:25)
UB3APB-WY>APRS,TCPIP*,qAC,T2VENYOV:!4435.05N/04007.56E_000/000t083h43 Temp 26.0/28.2/29.3/26.3C Hum 43.0% (2026-09-06 13:28:31)
UB3APB-WY>APRS,TCPIP*,qAC,T2VENYOV:!4435.05N/04007.56E_000/000t085h40 Temp 26.0/29.3/29.6/26.4C Hum 40.0% (2026-09-06 13:34:06)
UB3APB-WY>APRS,TCPIP*,qAC,T2VENYOV:!4435.05N/04007.56E_000/000t084h39 Temp 26.1/28.9/29.6/26.3C Hum 39.0% (2026-09-06 13:39:12)
UB3APB-WY>APRS,TCPIP*,qAC,T2ADG:!4435.05N/04007.56E_000/000t084h40 Temp 26.0/28.9/29.4/26.3C Hum 40.0% (2026-09-06 13:44:18)
UB3APB-WY>APRS,TCPIP*,qAC,T2MOSCOW:!4435.05N/04007.56E_000/000t083h41 Temp 26.0/28.6/29.5/26.3C Hum 41.0% (2026-09-06 13:49:24)
UB3APB-WY>APRS,TCPIP*,qAC,T2RUSSIA2:!4435.05N/04007.56E_000/000t085h41 Temp 26.1/29.2/29.9/26.5C Hum 41.0% (2026-09-06 13:54:29)
UB3APB-WY>APRS,TCPIP*,qAC,T2VENYOV:!4435.05N/04007.56E_000/000t084h43 Temp 26.1/28.9/29.3/26.4C Hum 43.0% (2026-09-06 14:00:06)
UB3APB-WY>APRS,TCPIP*,qAC,T2MOSCOW:!4435.05N/04007.56E_000/000t084h43 Temp 26.0/28.9/29.6/26.6C Hum 43.0% (2026-09-06 14:05:11)
UB3APB-WY>APRS,TCPIP*,qAC,T2RUSSIA2:!4435.05N/04007.56E_000/000t083h42 Temp 26.1/28.4/29.3/26.6C Hum 42.0% (2026-09-06 14:10:17)
UB3APB-WY>APRS,TCPIP*,qAC,T2VENYOV:!4435.05N/04007.56E_000/000t085h41 Temp 26.1/29.2/29.5/26.7C Hum 41.0% (2026-09-06 14:15:23)
UB3APB-WY>APRS,TCPIP*,qAC,T2VENYOV:!4435.05N/04007.56E_000/000t085h43 Temp 26.2/29.3/29.6/26.9C Hum 43.0% (2026-09-06 14:20:28)
UB3APB-WY>APRS,TCPIP*,qAC,T2RUSSIA2:!4435.05N/04007.56E_000/000t084h44 Temp 26.2/29.1/29.9/27.1C Hum 44.0% (2026-09-06 14:25:34)